McCurtain, Oklahoma
Current Conditions -  °F | °C
As of 7:15 PM on Friday 24 Oct 2014 (Local Time) from KGZL Reporting Station
Few Clouds Few Clouds  
Wind Chill: 68°   Ceiling: Unl
Heat Index: 68°   Visibility: 10mi
Dew Point: 57°   Wind: 5mph
Humidity: 68%   Direction: 160°SSE
Pressure: 30.07"   Gusts: NA
Location:  35.15°N, 94.97°W
Report Text: KGZL 250015Z AUTO 16004KT 10SM FEW036 20/14 A3007 RMK AO2
Loading
Personal Weather Stations






























Interactive Weather Map
Tropical Storm Tracking
New forecast layout! Learn more

10-Day Weather Forecast

Advertisements
Track Severe Weather on mobile